sensor_id;sensor_type;location;lat;lon;timestamp;temperature;humidity
17948;DHT22;9099;47.958;11.366;2024-02-14T00:00:47;3.40;99.90
17948;DHT22;9099;47.958;11.366;2024-02-14T00:03:13;3.40;99.90
17948;DHT22;9099;47.958;11.366;2024-02-14T00:05:40;3.50;99.90
17948;DHT22;9099;47.958;11.366;2024-02-14T00:08:07;3.60;99.90
17948;DHT22;9099;47.958;11.366;2024-02-14T00:10:34;3.60;99.90
17948;DHT22;9099;47.958;11.366;2024-02-14T00:13:01;3.50;99.90
17948;DHT22;9099;47.958;11.366;2024-02-14T00:15:28;3.40;99.90
17948;DHT22;9099;47.958;11.366;2024-02-14T00:17:56;3.40;99.90
17948;DHT22;9099;47.958;11.366;2024-02-14T00:20:23;3.40;99.90
17948;DHT22;9099;47.958;11.366;2024-02-14T00:22:50;3.40;99.90
17948;DHT22;9099;47.958;11.366;2024-02-14T00:25:17;3.40;99.90
17948;DHT22;9099;47.958;11.366;2024-02-14T00:27:44;3.50;99.90
17948;DHT22;9099;47.958;11.366;2024-02-14T00:30:11;3.50;99.90
17948;DHT22;9099;47.958;11.366;2024-02-14T00:32:38;3.60;99.90
17948;DHT22;9099;47.958;11.366;2024-02-14T00:35:07;3.60;99.90
17948;DHT22;9099;47.958;11.366;2024-02-14T00:37:34;3.70;99.90
17948;DHT22;9099;47.958;11.366;2024-02-14T00:40:01;3.70;99.90
17948;DHT22;9099;47.958;11.366;2024-02-14T00:42:28;3.70;99.90
17948;DHT22;9099;47.958;11.366;2024-02-14T00:44:54;3.70;99.90
17948;DHT22;9099;47.958;11.366;2024-02-14T00:47:21;3.80;99.90
17948;DHT22;9099;47.958;11.366;2024-02-14T00:49:48;3.80;99.90
17948;DHT22;9099;47.958;11.366;2024-02-14T00:52:17;3.90;99.90
17948;DHT22;9099;47.958;11.366;2024-02-14T00:54:43;3.80;99.90
17948;DHT22;9099;47.958;11.366;2024-02-14T00:57:10;3.90;99.90
17948;DHT22;9099;47.958;11.366;2024-02-14T00:59:38;3.90;99.90
17948;DHT22;9099;47.958;11.366;2024-02-14T01:02:05;3.90;99.90
17948;DHT22;9099;47.958;11.366;2024-02-14T01:04:31;3.90;99.90
17948;DHT22;9099;47.958;11.366;2024-02-14T01:07:01;3.80;99.90
17948;DHT22;9099;47.958;11.366;2024-02-14T01:09:29;3.80;99.90
17948;DHT22;9099;47.958;11.366;2024-02-14T01:11:58;3.80;99.90
17948;DHT22;9099;47.958;11.366;2024-02-14T01:14:25;3.80;99.90
17948;DHT22;9099;47.958;11.366;2024-02-14T01:16:52;3.80;99.90
17948;DHT22;9099;47.958;11.366;2024-02-14T01:19:19;3.70;99.90
17948;DHT22;9099;47.958;11.366;2024-02-14T01:21:46;3.70;99.90
17948;DHT22;9099;47.958;11.366;2024-02-14T01:24:13;3.70;99.90
17948;DHT22;9099;47.958;11.366;2024-02-14T01:26:42;3.70;99.90
17948;DHT22;9099;47.958;11.366;2024-02-14T01:29:08;3.70;99.90
17948;DHT22;9099;47.958;11.366;2024-02-14T01:31:35;3.70;99.90
17948;DHT22;9099;47.958;11.366;2024-02-14T01:34:02;3.70;99.90
17948;DHT22;9099;47.958;11.366;2024-02-14T01:36:29;3.70;99.90
17948;DHT22;9099;47.958;11.366;2024-02-14T01:38:56;3.70;99.90
17948;DHT22;9099;47.958;11.366;2024-02-14T01:41:23;3.70;99.90
17948;DHT22;9099;47.958;11.366;2024-02-14T01:43:51;3.80;99.90
17948;DHT22;9099;47.958;11.366;2024-02-14T01:46:18;3.80;99.90
17948;DHT22;9099;47.958;11.366;2024-02-14T01:48:45;3.70;99.90
17948;DHT22;9099;47.958;11.366;2024-02-14T01:51:13;3.70;99.90
17948;DHT22;9099;47.958;11.366;2024-02-14T01:53:43;3.70;99.90
17948;DHT22;9099;47.958;11.366;2024-02-14T01:56:10;3.60;99.90
17948;DHT22;9099;47.958;11.366;2024-02-14T01:58:38;3.60;99.90
17948;DHT22;9099;47.958;11.366;2024-02-14T02:01:06;3.60;99.90
17948;DHT22;9099;47.958;11.366;2024-02-14T02:03:35;3.60;99.90
17948;DHT22;9099;47.958;11.366;2024-02-14T02:06:03;3.60;99.90
17948;DHT22;9099;47.958;11.366;2024-02-14T02:08:31;3.60;99.90
17948;DHT22;9099;47.958;11.366;2024-02-14T02:10:59;3.60;99.90
17948;DHT22;9099;47.958;11.366;2024-02-14T02:13:25;3.60;99.90
17948;DHT22;9099;47.958;11.366;2024-02-14T02:15:52;3.60;99.90
17948;DHT22;9099;47.958;11.366;2024-02-14T02:18:21;3.70;99.90
17948;DHT22;9099;47.958;11.366;2024-02-14T02:20:48;3.70;99.90
17948;DHT22;9099;47.958;11.366;2024-02-14T02:23:16;3.70;99.90
17948;DHT22;9099;47.958;11.366;2024-02-14T02:25:43;3.70;99.90
17948;DHT22;9099;47.958;11.366;2024-02-14T02:28:10;3.70;99.90
17948;DHT22;9099;47.958;11.366;2024-02-14T02:30:37;3.60;99.90
17948;DHT22;9099;47.958;11.366;2024-02-14T02:33:04;3.70;99.90
17948;DHT22;9099;47.958;11.366;2024-02-14T02:35:32;3.60;99.90
17948;DHT22;9099;47.958;11.366;2024-02-14T02:38:00;3.50;99.90
17948;DHT22;9099;47.958;11.366;2024-02-14T02:40:28;3.30;99.90
17948;DHT22;9099;47.958;11.366;2024-02-14T02:42:55;3.30;99.90
17948;DHT22;9099;47.958;11.366;2024-02-14T02:45:22;3.20;99.90
17948;DHT22;9099;47.958;11.366;2024-02-14T02:47:48;3.20;99.90
17948;DHT22;9099;47.958;11.366;2024-02-14T02:50:17;3.30;99.90
17948;DHT22;9099;47.958;11.366;2024-02-14T02:52:43;3.30;99.90
17948;DHT22;9099;47.958;11.366;2024-02-14T02:55:10;3.40;99.90
17948;DHT22;9099;47.958;11.366;2024-02-14T02:57:40;3.50;99.90
17948;DHT22;9099;47.958;11.366;2024-02-14T03:00:10;3.50;99.90
17948;DHT22;9099;47.958;11.366;2024-02-14T03:02:38;3.50;99.90
17948;DHT22;9099;47.958;11.366;2024-02-14T03:05:07;3.50;99.90
17948;DHT22;9099;47.958;11.366;2024-02-14T03:07:36;3.50;99.90
17948;DHT22;9099;47.958;11.366;2024-02-14T03:10:03;3.50;99.90
17948;DHT22;9099;47.958;11.366;2024-02-14T03:12:30;3.50;99.90
17948;DHT22;9099;47.958;11.366;2024-02-14T03:14:59;3.50;99.90
17948;DHT22;9099;47.958;11.366;2024-02-14T03:17:26;3.60;99.90
17948;DHT22;9099;47.958;11.366;2024-02-14T03:19:54;3.60;99.90
17948;DHT22;9099;47.958;11.366;2024-02-14T03:22:22;3.60;99.90
17948;DHT22;9099;47.958;11.366;2024-02-14T03:24:49;3.70;99.90
17948;DHT22;9099;47.958;11.366;2024-02-14T03:27:15;3.70;99.90
17948;DHT22;9099;47.958;11.366;2024-02-14T03:29:43;3.70;99.90
17948;DHT22;9099;47.958;11.366;2024-02-14T03:32:11;3.70;99.90
17948;DHT22;9099;47.958;11.366;2024-02-14T03:34:38;3.70;99.90
17948;DHT22;9099;47.958;11.366;2024-02-14T03:37:05;3.70;99.90
17948;DHT22;9099;47.958;11.366;2024-02-14T03:39:32;3.80;99.90
17948;DHT22;9099;47.958;11.366;2024-02-14T03:41:59;3.80;99.90
17948;DHT22;9099;47.958;11.366;2024-02-14T03:44:28;3.80;99.90
17948;DHT22;9099;47.958;11.366;2024-02-14T03:46:55;3.80;99.90
17948;DHT22;9099;47.958;11.366;2024-02-14T03:49:23;3.80;99.90
17948;DHT22;9099;47.958;11.366;2024-02-14T03:51:51;3.80;99.90
17948;DHT22;9099;47.958;11.366;2024-02-14T03:54:20;3.80;99.90
17948;DHT22;9099;47.958;11.366;2024-02-14T03:56:46;3.80;99.90
17948;DHT22;9099;47.958;11.366;2024-02-14T03:59:14;3.80;99.90
17948;DHT22;9099;47.958;11.366;2024-02-14T04:01:46;3.80;99.90
17948;DHT22;9099;47.958;11.366;2024-02-14T04:04:13;3.80;99.90
17948;DHT22;9099;47.958;11.366;2024-02-14T04:06:41;3.70;99.90
17948;DHT22;9099;47.958;11.366;2024-02-14T04:09:10;3.60;99.90
17948;DHT22;9099;47.958;11.366;2024-02-14T04:11:37;3.40;99.90
17948;DHT22;9099;47.958;11.366;2024-02-14T04:14:05;3.30;99.90
17948;DHT22;9099;47.958;11.366;2024-02-14T04:16:32;3.20;99.90
17948;DHT22;9099;47.958;11.366;2024-02-14T04:18:59;3.10;99.90
17948;DHT22;9099;47.958;11.366;2024-02-14T04:21:25;3.00;99.90
17948;DHT22;9099;47.958;11.366;2024-02-14T04:23:54;3.00;99.90
17948;DHT22;9099;47.958;11.366;2024-02-14T04:26:21;3.00;99.90
17948;DHT22;9099;47.958;11.366;2024-02-14T04:28:48;3.00;99.90
17948;DHT22;9099;47.958;11.366;2024-02-14T04:31:14;3.00;99.90
17948;DHT22;9099;47.958;11.366;2024-02-14T04:33:41;2.90;99.90
17948;DHT22;9099;47.958;11.366;2024-02-14T04:36:08;2.90;99.90
17948;DHT22;9099;47.958;11.366;2024-02-14T04:38:36;2.90;99.90
17948;DHT22;9099;47.958;11.366;2024-02-14T04:41:04;2.90;99.90
17948;DHT22;9099;47.958;11.366;2024-02-14T04:43:31;2.90;99.90
17948;DHT22;9099;47.958;11.366;2024-02-14T04:45:58;2.90;99.90
17948;DHT22;9099;47.958;11.366;2024-02-14T04:48:25;3.00;99.90
17948;DHT22;9099;47.958;11.366;2024-02-14T04:50:52;3.00;99.90
17948;DHT22;9099;47.958;11.366;2024-02-14T04:53:19;3.10;99.90
17948;DHT22;9099;47.958;11.366;2024-02-14T04:55:46;3.20;99.90
17948;DHT22;9099;47.958;11.366;2024-02-14T04:58:14;3.20;99.90
17948;DHT22;9099;47.958;11.366;2024-02-14T05:00:41;3.30;99.90
17948;DHT22;9099;47.958;11.366;2024-02-14T05:03:08;3.30;99.90
17948;DHT22;9099;47.958;11.366;2024-02-14T05:05:35;3.40;99.90
17948;DHT22;9099;47.958;11.366;2024-02-14T05:08:04;3.40;99.90
17948;DHT22;9099;47.958;11.366;2024-02-14T05:10:31;3.40;99.90
17948;DHT22;9099;47.958;11.366;2024-02-14T05:12:58;3.40;99.90
17948;DHT22;9099;47.958;11.366;2024-02-14T05:15:26;3.40;99.90
17948;DHT22;9099;47.958;11.366;2024-02-14T05:17:53;3.30;99.90
17948;DHT22;9099;47.958;11.366;2024-02-14T05:20:21;3.30;99.90
17948;DHT22;9099;47.958;11.366;2024-02-14T05:22:48;3.30;99.90
17948;DHT22;9099;47.958;11.366;2024-02-14T05:25:15;3.30;99.90
17948;DHT22;9099;47.958;11.366;2024-02-14T05:27:44;3.20;99.90
17948;DHT22;9099;47.958;11.366;2024-02-14T05:30:12;3.30;99.90
17948;DHT22;9099;47.958;11.366;2024-02-14T05:32:41;3.30;99.90
17948;DHT22;9099;47.958;11.366;2024-02-14T05:35:08;3.30;99.90
17948;DHT22;9099;47.958;11.366;2024-02-14T05:37:35;3.40;99.90
17948;DHT22;9099;47.958;11.366;2024-02-14T05:40:03;3.50;99.90
17948;DHT22;9099;47.958;11.366;2024-02-14T05:42:32;3.50;99.90
17948;DHT22;9099;47.958;11.366;2024-02-14T05:45:00;3.50;99.90
17948;DHT22;9099;47.958;11.366;2024-02-14T05:47:29;3.50;99.90
17948;DHT22;9099;47.958;11.366;2024-02-14T05:49:58;3.40;99.90
17948;DHT22;9099;47.958;11.366;2024-02-14T05:52:25;3.40;99.90
17948;DHT22;9099;47.958;11.366;2024-02-14T05:54:52;3.30;99.90
17948;DHT22;9099;47.958;11.366;2024-02-14T05:57:19;3.40;99.90
17948;DHT22;9099;47.958;11.366;2024-02-14T05:59:46;3.40;99.90
17948;DHT22;9099;47.958;11.366;2024-02-14T06:02:13;3.40;99.90
17948;DHT22;9099;47.958;11.366;2024-02-14T06:04:40;3.40;99.90
17948;DHT22;9099;47.958;11.366;2024-02-14T06:07:09;3.50;99.90
17948;DHT22;9099;47.958;11.366;2024-02-14T06:09:37;3.50;99.90
17948;DHT22;9099;47.958;11.366;2024-02-14T06:12:04;3.40;99.90
17948;DHT22;9099;47.958;11.366;2024-02-14T06:14:31;3.50;99.90
17948;DHT22;9099;47.958;11.366;2024-02-14T06:16:59;3.60;99.90
17948;DHT22;9099;47.958;11.366;2024-02-14T06:19:27;3.60;99.90
17948;DHT22;9099;47.958;11.366;2024-02-14T06:21:54;3.70;99.90
17948;DHT22;9099;47.958;11.366;2024-02-14T06:24:22;3.80;99.90
17948;DHT22;9099;47.958;11.366;2024-02-14T06:26:49;3.80;99.90
17948;DHT22;9099;47.958;11.366;2024-02-14T06:29:16;3.80;99.90
17948;DHT22;9099;47.958;11.366;2024-02-14T06:31:43;3.80;99.90
17948;DHT22;9099;47.958;11.366;2024-02-14T06:34:09;3.80;99.90
17948;DHT22;9099;47.958;11.366;2024-02-14T06:36:36;3.90;99.90
17948;DHT22;9099;47.958;11.366;2024-02-14T06:39:04;3.90;99.90
17948;DHT22;9099;47.958;11.366;2024-02-14T06:41:34;4.00;99.90
17948;DHT22;9099;47.958;11.366;2024-02-14T06:44:01;4.10;99.90
17948;DHT22;9099;47.958;11.366;2024-02-14T06:46:28;4.10;99.90
17948;DHT22;9099;47.958;11.366;2024-02-14T06:48:55;4.10;99.90
17948;DHT22;9099;47.958;11.366;2024-02-14T06:51:22;4.20;99.90
17948;DHT22;9099;47.958;11.366;2024-02-14T06:53:49;4.20;99.90
17948;DHT22;9099;47.958;11.366;2024-02-14T06:56:16;4.20;99.90
17948;DHT22;9099;47.958;11.366;2024-02-14T06:58:44;4.40;99.90
17948;DHT22;9099;47.958;11.366;2024-02-14T07:01:11;4.50;99.90
17948;DHT22;9099;47.958;11.366;2024-02-14T07:03:40;4.50;99.90
17948;DHT22;9099;47.958;11.366;2024-02-14T07:06:07;4.50;99.90
17948;DHT22;9099;47.958;11.366;2024-02-14T07:08:34;4.50;99.90
17948;DHT22;9099;47.958;11.366;2024-02-14T07:11:01;4.50;99.90
17948;DHT22;9099;47.958;11.366;2024-02-14T07:13:28;4.60;99.90
17948;DHT22;9099;47.958;11.366;2024-02-14T07:15:56;4.60;99.90
17948;DHT22;9099;47.958;11.366;2024-02-14T07:18:23;4.70;99.90
17948;DHT22;9099;47.958;11.366;2024-02-14T07:20:50;4.80;99.90
17948;DHT22;9099;47.958;11.366;2024-02-14T07:23:18;4.90;99.90
17948;DHT22;9099;47.958;11.366;2024-02-14T07:25:45;4.90;99.90
17948;DHT22;9099;47.958;11.366;2024-02-14T07:28:12;5.00;99.90
17948;DHT22;9099;47.958;11.366;2024-02-14T07:30:39;5.10;99.90
17948;DHT22;9099;47.958;11.366;2024-02-14T07:33:07;5.20;99.90
17948;DHT22;9099;47.958;11.366;2024-02-14T07:35:35;5.30;99.90
17948;DHT22;9099;47.958;11.366;2024-02-14T07:38:03;5.40;99.90
17948;DHT22;9099;47.958;11.366;2024-02-14T07:40:29;5.50;99.90
17948;DHT22;9099;47.958;11.366;2024-02-14T07:42:57;5.60;99.90
17948;DHT22;9099;47.958;11.366;2024-02-14T07:45:24;5.80;99.90
17948;DHT22;9099;47.958;11.366;2024-02-14T07:47:51;5.80;99.90
17948;DHT22;9099;47.958;11.366;2024-02-14T07:50:19;5.90;99.90
17948;DHT22;9099;47.958;11.366;2024-02-14T07:52:47;5.80;99.90
17948;DHT22;9099;47.958;11.366;2024-02-14T07:55:14;5.70;99.90
17948;DHT22;9099;47.958;11.366;2024-02-14T07:57:41;5.50;99.90
17948;DHT22;9099;47.958;11.366;2024-02-14T08:00:09;5.50;99.90
17948;DHT22;9099;47.958;11.366;2024-02-14T08:02:36;5.50;99.90
17948;DHT22;9099;47.958;11.366;2024-02-14T08:05:04;5.60;99.90
17948;DHT22;9099;47.958;11.366;2024-02-14T08:07:33;5.70;99.90
17948;DHT22;9099;47.958;11.366;2024-02-14T08:09:59;5.80;99.90
17948;DHT22;9099;47.958;11.366;2024-02-14T08:12:26;5.90;99.90
17948;DHT22;9099;47.958;11.366;2024-02-14T08:14:53;6.00;99.90
17948;DHT22;9099;47.958;11.366;2024-02-14T08:17:20;6.10;99.90
17948;DHT22;9099;47.958;11.366;2024-02-14T08:19:47;6.20;99.90
17948;DHT22;9099;47.958;11.366;2024-02-14T08:22:14;6.40;99.90
17948;DHT22;9099;47.958;11.366;2024-02-14T08:24:42;6.50;99.90
17948;DHT22;9099;47.958;11.366;2024-02-14T08:27:09;6.60;99.90
17948;DHT22;9099;47.958;11.366;2024-02-14T08:29:35;6.70;99.90
17948;DHT22;9099;47.958;11.366;2024-02-14T08:32:03;6.90;99.90
17948;DHT22;9099;47.958;11.366;2024-02-14T08:34:30;7.10;99.90
17948;DHT22;9099;47.958;11.366;2024-02-14T08:36:57;7.20;99.90
17948;DHT22;9099;47.958;11.366;2024-02-14T08:39:24;7.20;99.90
17948;DHT22;9099;47.958;11.366;2024-02-14T08:41:53;7.40;99.90
17948;DHT22;9099;47.958;11.366;2024-02-14T08:44:20;7.50;99.90
17948;DHT22;9099;47.958;11.366;2024-02-14T08:46:46;7.80;99.90
17948;DHT22;9099;47.958;11.366;2024-02-14T08:49:14;8.00;99.90
17948;DHT22;9099;47.958;11.366;2024-02-14T08:51:40;8.20;99.90
17948;DHT22;9099;47.958;11.366;2024-02-14T08:54:09;8.40;99.90
17948;DHT22;9099;47.958;11.366;2024-02-14T08:56:37;8.50;99.90
17948;DHT22;9099;47.958;11.366;2024-02-14T08:59:05;8.60;99.90
17948;DHT22;9099;47.958;11.366;2024-02-14T09:01:32;8.60;99.90
17948;DHT22;9099;47.958;11.366;2024-02-14T09:03:59;8.70;99.90
17948;DHT22;9099;47.958;11.366;2024-02-14T09:06:26;8.80;99.90
17948;DHT22;9099;47.958;11.366;2024-02-14T09:08:53;8.90;99.90
17948;DHT22;9099;47.958;11.366;2024-02-14T09:11:20;9.00;99.90
17948;DHT22;9099;47.958;11.366;2024-02-14T09:13:48;9.30;99.90
17948;DHT22;9099;47.958;11.366;2024-02-14T09:16:20;9.60;99.90
17948;DHT22;9099;47.958;11.366;2024-02-14T09:18:49;9.80;99.90
17948;DHT22;9099;47.958;11.366;2024-02-14T09:21:16;9.90;99.90
17948;DHT22;9099;47.958;11.366;2024-02-14T09:23:43;10.00;99.90
17948;DHT22;9099;47.958;11.366;2024-02-14T09:26:10;10.10;99.90
17948;DHT22;9099;47.958;11.366;2024-02-14T09:28:40;10.10;99.90
17948;DHT22;9099;47.958;11.366;2024-02-14T09:31:07;10.10;99.90
17948;DHT22;9099;47.958;11.366;2024-02-14T09:33:36;10.20;99.90
17948;DHT22;9099;47.958;11.366;2024-02-14T09:36:04;10.30;99.90
17948;DHT22;9099;47.958;11.366;2024-02-14T09:38:31;10.40;99.90
17948;DHT22;9099;47.958;11.366;2024-02-14T09:41:03;10.50;99.90
17948;DHT22;9099;47.958;11.366;2024-02-14T09:43:34;10.70;99.90
17948;DHT22;9099;47.958;11.366;2024-02-14T09:46:02;11.10;99.90
17948;DHT22;9099;47.958;11.366;2024-02-14T09:48:30;11.80;99.90
17948;DHT22;9099;47.958;11.366;2024-02-14T09:50:58;12.40;99.90
17948;DHT22;9099;47.958;11.366;2024-02-14T09:53:26;12.80;99.90
17948;DHT22;9099;47.958;11.366;2024-02-14T09:55:55;13.20;99.90
17948;DHT22;9099;47.958;11.366;2024-02-14T09:58:22;13.50;99.90
17948;DHT22;9099;47.958;11.366;2024-02-14T10:00:59;13.60;99.90
17948;DHT22;9099;47.958;11.366;2024-02-14T10:03:26;13.90;99.90
17948;DHT22;9099;47.958;11.366;2024-02-14T10:05:53;14.30;99.90
17948;DHT22;9099;47.958;11.366;2024-02-14T10:08:22;15.20;99.90
17948;DHT22;9099;47.958;11.366;2024-02-14T10:10:49;16.40;99.90
17948;DHT22;9099;47.958;11.366;2024-02-14T10:13:16;17.50;99.90
17948;DHT22;9099;47.958;11.366;2024-02-14T10:15:43;17.80;99.90
17948;DHT22;9099;47.958;11.366;2024-02-14T10:18:09;18.20;99.90
17948;DHT22;9099;47.958;11.366;2024-02-14T10:20:36;18.00;99.90
17948;DHT22;9099;47.958;11.366;2024-02-14T10:23:10;17.60;99.90
17948;DHT22;9099;47.958;11.366;2024-02-14T10:25:38;17.60;99.90
17948;DHT22;9099;47.958;11.366;2024-02-14T10:28:06;17.80;99.90
17948;DHT22;9099;47.958;11.366;2024-02-14T10:30:34;18.50;99.90
17948;DHT22;9099;47.958;11.366;2024-02-14T10:33:02;19.50;99.90
17948;DHT22;9099;47.958;11.366;2024-02-14T10:35:30;20.10;99.90
17948;DHT22;9099;47.958;11.366;2024-02-14T10:37:58;20.60;99.90
17948;DHT22;9099;47.958;11.366;2024-02-14T10:40:27;21.10;99.90
17948;DHT22;9099;47.958;11.366;2024-02-14T10:46:54;22.10;98.70
17948;DHT22;9099;47.958;11.366;2024-02-14T10:49:22;21.70;98.80
17948;DHT22;9099;47.958;11.366;2024-02-14T10:51:53;21.40;98.40
17948;DHT22;9099;47.958;11.366;2024-02-14T10:54:21;20.80;98.60
17948;DHT22;9099;47.958;11.366;2024-02-14T10:56:49;20.40;99.20
17948;DHT22;9099;47.958;11.366;2024-02-14T10:59:19;19.70;99.50
17948;DHT22;9099;47.958;11.366;2024-02-14T11:01:47;19.10;99.80
17948;DHT22;9099;47.958;11.366;2024-02-14T11:04:16;18.20;99.90
17948;DHT22;9099;47.958;11.366;2024-02-14T11:06:45;17.40;99.90
17948;DHT22;9099;47.958;11.366;2024-02-14T11:09:13;17.10;99.90
17948;DHT22;9099;47.958;11.366;2024-02-14T11:11:42;17.10;99.90
17948;DHT22;9099;47.958;11.366;2024-02-14T11:14:09;16.70;99.90
17948;DHT22;9099;47.958;11.366;2024-02-14T11:16:37;16.60;99.90
17948;DHT22;9099;47.958;11.366;2024-02-14T11:19:08;16.30;99.90
17948;DHT22;9099;47.958;11.366;2024-02-14T11:21:39;16.00;99.90
17948;DHT22;9099;47.958;11.366;2024-02-14T11:24:09;15.80;99.90
17948;DHT22;9099;47.958;11.366;2024-02-14T11:26:40;15.60;99.90
17948;DHT22;9099;47.958;11.366;2024-02-14T11:29:14;15.40;99.90
17948;DHT22;9099;47.958;11.366;2024-02-14T11:31:42;15.30;99.90
17948;DHT22;9099;47.958;11.366;2024-02-14T11:34:09;15.20;99.90
17948;DHT22;9099;47.958;11.366;2024-02-14T11:36:39;15.20;99.90
17948;DHT22;9099;47.958;11.366;2024-02-14T11:39:08;15.20;99.90
17948;DHT22;9099;47.958;11.366;2024-02-14T11:41:35;15.10;99.90
17948;DHT22;9099;47.958;11.366;2024-02-14T11:44:03;15.10;99.90
17948;DHT22;9099;47.958;11.366;2024-02-14T11:46:31;15.10;99.90
17948;DHT22;9099;47.958;11.366;2024-02-14T11:48:59;15.00;99.90
17948;DHT22;9099;47.958;11.366;2024-02-14T11:51:27;14.90;99.90
17948;DHT22;9099;47.958;11.366;2024-02-14T11:53:57;14.90;99.90
17948;DHT22;9099;47.958;11.366;2024-02-14T11:56:30;15.00;99.90
17948;DHT22;9099;47.958;11.366;2024-02-14T11:58:59;14.90;99.90
17948;DHT22;9099;47.958;11.366;2024-02-14T12:01:28;15.00;99.90
17948;DHT22;9099;47.958;11.366;2024-02-14T12:03:56;15.10;99.90
17948;DHT22;9099;47.958;11.366;2024-02-14T12:06:23;15.10;99.90
17948;DHT22;9099;47.958;11.366;2024-02-14T12:08:51;15.10;99.90
17948;DHT22;9099;47.958;11.366;2024-02-14T12:11:19;15.20;99.90
17948;DHT22;9099;47.958;11.366;2024-02-14T12:13:49;15.40;99.90
17948;DHT22;9099;47.958;11.366;2024-02-14T12:16:19;15.40;99.90
17948;DHT22;9099;47.958;11.366;2024-02-14T12:18:46;15.40;99.90
17948;DHT22;9099;47.958;11.366;2024-02-14T12:21:13;15.40;99.90
17948;DHT22;9099;47.958;11.366;2024-02-14T12:23:40;15.40;99.90
17948;DHT22;9099;47.958;11.366;2024-02-14T12:26:07;15.40;99.90
17948;DHT22;9099;47.958;11.366;2024-02-14T12:28:46;15.40;99.90
17948;DHT22;9099;47.958;11.366;2024-02-14T12:31:21;15.30;99.90
17948;DHT22;9099;47.958;11.366;2024-02-14T12:33:48;15.30;99.90
17948;DHT22;9099;47.958;11.366;2024-02-14T12:36:15;15.30;99.90
17948;DHT22;9099;47.958;11.366;2024-02-14T12:38:43;15.30;99.90
17948;DHT22;9099;47.958;11.366;2024-02-14T12:41:10;15.30;99.90
17948;DHT22;9099;47.958;11.366;2024-02-14T12:43:37;15.70;99.90
17948;DHT22;9099;47.958;11.366;2024-02-14T12:46:05;15.70;99.90
17948;DHT22;9099;47.958;11.366;2024-02-14T12:48:32;15.60;99.90
17948;DHT22;9099;47.958;11.366;2024-02-14T12:50:59;15.40;99.90
17948;DHT22;9099;47.958;11.366;2024-02-14T12:53:26;15.10;99.90
17948;DHT22;9099;47.958;11.366;2024-02-14T12:55:53;14.90;99.90
17948;DHT22;9099;47.958;11.366;2024-02-14T12:58:20;14.60;99.90
17948;DHT22;9099;47.958;11.366;2024-02-14T13:00:47;14.60;99.90
17948;DHT22;9099;47.958;11.366;2024-02-14T13:03:15;14.70;99.90
17948;DHT22;9099;47.958;11.366;2024-02-14T13:05:42;14.80;99.90
17948;DHT22;9099;47.958;11.366;2024-02-14T13:08:09;14.90;99.90
17948;DHT22;9099;47.958;11.366;2024-02-14T13:10:36;14.90;99.90
17948;DHT22;9099;47.958;11.366;2024-02-14T13:13:03;15.00;99.90
17948;DHT22;9099;47.958;11.366;2024-02-14T13:15:31;15.10;99.90
17948;DHT22;9099;47.958;11.366;2024-02-14T13:17:57;15.10;99.90
17948;DHT22;9099;47.958;11.366;2024-02-14T13:20:27;15.20;99.90
17948;DHT22;9099;47.958;11.366;2024-02-14T13:22:53;15.30;99.90
17948;DHT22;9099;47.958;11.366;2024-02-14T13:25:20;15.50;99.90
17948;DHT22;9099;47.958;11.366;2024-02-14T13:27:47;15.60;99.90
17948;DHT22;9099;47.958;11.366;2024-02-14T13:30:14;15.50;99.90
17948;DHT22;9099;47.958;11.366;2024-02-14T13:32:41;15.50;99.90
17948;DHT22;9099;47.958;11.366;2024-02-14T13:35:08;15.50;99.90
17948;DHT22;9099;47.958;11.366;2024-02-14T13:37:38;15.40;99.90
17948;DHT22;9099;47.958;11.366;2024-02-14T13:40:06;15.40;99.90
17948;DHT22;9099;47.958;11.366;2024-02-14T13:42:35;15.30;99.90
17948;DHT22;9099;47.958;11.366;2024-02-14T13:45:04;15.30;99.90
17948;DHT22;9099;47.958;11.366;2024-02-14T13:47:31;15.20;99.90
17948;DHT22;9099;47.958;11.366;2024-02-14T13:49:58;15.30;99.90
17948;DHT22;9099;47.958;11.366;2024-02-14T13:52:25;15.60;99.90
17948;DHT22;9099;47.958;11.366;2024-02-14T13:54:53;15.90;99.90
17948;DHT22;9099;47.958;11.366;2024-02-14T13:57:20;16.00;99.90
17948;DHT22;9099;47.958;11.366;2024-02-14T13:59:47;16.10;99.90
17948;DHT22;9099;47.958;11.366;2024-02-14T14:02:14;16.10;99.90
17948;DHT22;9099;47.958;11.366;2024-02-14T14:04:40;16.00;99.90
17948;DHT22;9099;47.958;11.366;2024-02-14T14:07:07;15.80;99.90
17948;DHT22;9099;47.958;11.366;2024-02-14T14:09:34;15.60;99.90
17948;DHT22;9099;47.958;11.366;2024-02-14T14:12:02;15.50;99.90
17948;DHT22;9099;47.958;11.366;2024-02-14T14:14:29;15.50;99.90
17948;DHT22;9099;47.958;11.366;2024-02-14T14:16:56;15.70;99.90
17948;DHT22;9099;47.958;11.366;2024-02-14T14:19:23;15.80;99.90
17948;DHT22;9099;47.958;11.366;2024-02-14T14:21:50;16.10;99.90
17948;DHT22;9099;47.958;11.366;2024-02-14T14:24:17;16.30;99.90
17948;DHT22;9099;47.958;11.366;2024-02-14T14:26:44;16.30;99.90
17948;DHT22;9099;47.958;11.366;2024-02-14T14:29:12;16.20;99.90
17948;DHT22;9099;47.958;11.366;2024-02-14T14:31:39;16.10;99.90
17948;DHT22;9099;47.958;11.366;2024-02-14T14:34:06;16.10;99.90
17948;DHT22;9099;47.958;11.366;2024-02-14T14:36:33;15.90;99.90
17948;DHT22;9099;47.958;11.366;2024-02-14T14:39:03;15.80;99.90
17948;DHT22;9099;47.958;11.366;2024-02-14T14:41:29;15.80;99.90
17948;DHT22;9099;47.958;11.366;2024-02-14T14:43:56;15.80;99.90
17948;DHT22;9099;47.958;11.366;2024-02-14T14:46:25;15.70;99.90
17948;DHT22;9099;47.958;11.366;2024-02-14T14:48:52;15.60;99.90
17948;DHT22;9099;47.958;11.366;2024-02-14T14:51:19;15.60;99.90
17948;DHT22;9099;47.958;11.366;2024-02-14T14:53:45;15.50;99.90
17948;DHT22;9099;47.958;11.366;2024-02-14T14:56:12;15.50;99.90
17948;DHT22;9099;47.958;11.366;2024-02-14T14:58:39;15.40;99.90
17948;DHT22;9099;47.958;11.366;2024-02-14T15:01:08;15.30;99.90
17948;DHT22;9099;47.958;11.366;2024-02-14T15:03:36;15.20;99.90
17948;DHT22;9099;47.958;11.366;2024-02-14T15:06:03;15.20;99.90
17948;DHT22;9099;47.958;11.366;2024-02-14T15:08:31;15.10;99.90
17948;DHT22;9099;47.958;11.366;2024-02-14T15:10:58;14.90;99.90
17948;DHT22;9099;47.958;11.366;2024-02-14T15:13:25;14.80;99.90
17948;DHT22;9099;47.958;11.366;2024-02-14T15:15:53;14.70;99.90
17948;DHT22;9099;47.958;11.366;2024-02-14T15:18:19;14.70;99.90
17948;DHT22;9099;47.958;11.366;2024-02-14T15:20:48;14.60;99.90
17948;DHT22;9099;47.958;11.366;2024-02-14T15:23:15;14.50;99.90
17948;DHT22;9099;47.958;11.366;2024-02-14T15:25:41;14.40;99.90
17948;DHT22;9099;47.958;11.366;2024-02-14T15:28:09;14.40;99.90
17948;DHT22;9099;47.958;11.366;2024-02-14T15:30:40;14.30;99.90
17948;DHT22;9099;47.958;11.366;2024-02-14T15:33:24;14.30;99.90
17948;DHT22;9099;47.958;11.366;2024-02-14T15:35:55;14.10;99.90
17948;DHT22;9099;47.958;11.366;2024-02-14T15:38:23;13.90;99.90
17948;DHT22;9099;47.958;11.366;2024-02-14T15:40:51;13.80;99.90
17948;DHT22;9099;47.958;11.366;2024-02-14T15:43:20;13.80;99.90
17948;DHT22;9099;47.958;11.366;2024-02-14T15:45:47;13.70;99.90